createdAt,value
2018-12-26T00:01:54.974Z,-2.55
2018-12-26T00:04:25.263Z,-2.80
2018-12-26T00:06:56.302Z,-2.68
2018-12-26T00:09:25.345Z,-2.79
2018-12-26T00:11:54.172Z,-2.87
2018-12-26T00:14:23.259Z,-3.02
2018-12-26T00:16:51.944Z,-3.02
2018-12-26T00:19:20.761Z,-2.89
2018-12-26T00:21:49.558Z,-3.18
2018-12-26T00:24:18.256Z,-3.23
2018-12-26T00:26:47.143Z,-3.26
2018-12-26T00:29:15.847Z,-3.41
2018-12-26T00:31:44.677Z,-3.36
2018-12-26T00:34:13.302Z,-2.97
2018-12-26T00:36:42.321Z,-3.02
2018-12-26T00:39:11.327Z,-2.94
2018-12-26T00:41:40.926Z,-3.14
2018-12-26T00:44:09.653Z,-3.16
2018-12-26T00:46:38.425Z,-3.01
2018-12-26T00:49:07.111Z,-3.21
2018-12-26T00:51:35.790Z,-3.14
2018-12-26T00:54:05.382Z,-3.21
2018-12-26T00:56:34.452Z,-3.17
2018-12-26T00:59:03.275Z,-3.01
2018-12-26T01:01:31.964Z,-3.26
2018-12-26T01:04:00.613Z,-3.45
2018-12-26T01:06:29.198Z,-3.18
2018-12-26T01:08:57.946Z,-3.35
2018-12-26T01:11:26.556Z,-3.18
2018-12-26T01:13:55.374Z,-3.26
2018-12-26T01:16:24.213Z,-3.39
2018-12-26T01:18:52.953Z,-3.20
2018-12-26T01:21:21.812Z,-3.30
2018-12-26T01:23:50.864Z,-3.26
2018-12-26T01:26:19.892Z,-3.37
2018-12-26T01:28:48.637Z,-3.20
2018-12-26T01:31:17.271Z,-3.33
2018-12-26T01:33:45.714Z,-3.23
2018-12-26T01:36:14.937Z,-3.15
2018-12-26T01:38:44.704Z,-3.25
2018-12-26T01:41:14.578Z,-3.29
2018-12-26T01:43:43.138Z,-3.50
2018-12-26T01:46:12.072Z,-3.63
2018-12-26T01:48:40.840Z,-3.56
2018-12-26T01:51:10.944Z,-3.51
2018-12-26T01:53:39.652Z,-3.77
2018-12-26T01:56:08.019Z,-3.69
2018-12-26T01:58:36.485Z,-4.07
2018-12-26T02:01:04.927Z,-3.53
2018-12-26T02:03:33.394Z,-3.42
2018-12-26T02:06:01.752Z,-3.48
2018-12-26T02:08:30.159Z,-3.40
2018-12-26T02:10:58.533Z,-3.40
2018-12-26T02:13:26.921Z,-3.20
2018-12-26T02:15:55.283Z,-3.20
2018-12-26T02:18:23.681Z,-3.31
2018-12-26T02:20:53.217Z,-3.79
2018-12-26T02:23:21.618Z,-3.95
2018-12-26T02:25:50.058Z,-3.68
2018-12-26T02:28:18.525Z,-3.68
2018-12-26T02:30:46.892Z,-3.64
2018-12-26T02:33:15.365Z,-3.52
2018-12-26T02:35:43.732Z,-3.53
2018-12-26T02:38:12.121Z,-3.66
2018-12-26T02:40:40.489Z,-3.78
2018-12-26T02:43:08.886Z,-3.64
2018-12-26T02:45:37.250Z,-3.68
2018-12-26T02:48:05.667Z,-3.84
2018-12-26T02:50:34.208Z,-3.82
2018-12-26T02:53:02.574Z,-3.66
2018-12-26T02:55:31.039Z,-3.72
2018-12-26T02:57:59.411Z,-3.72
2018-12-26T03:00:27.832Z,-3.84
2018-12-26T03:02:56.200Z,-3.84
2018-12-26T03:05:24.592Z,-3.91
2018-12-26T03:07:52.965Z,-3.95
2018-12-26T03:10:21.356Z,-4.12
2018-12-26T03:12:49.732Z,-4.12
2018-12-26T03:15:18.134Z,-4.31
2018-12-26T03:17:46.639Z,-4.44
2018-12-26T03:20:15.076Z,-4.31
2018-12-26T03:22:43.515Z,-4.43
2018-12-26T03:25:11.981Z,-4.43
2018-12-26T03:27:40.412Z,-4.39
2018-12-26T03:30:09.480Z,-4.39
2018-12-26T03:32:37.876Z,-4.21
2018-12-26T03:35:06.457Z,-4.21
2018-12-26T03:37:34.888Z,-4.52
2018-12-26T03:40:04.217Z,-4.50
2018-12-26T03:42:32.575Z,-4.71
2018-12-26T03:45:02.216Z,-4.71
2018-12-26T03:47:32.909Z,-4.27
2018-12-26T03:50:03.025Z,-4.28
2018-12-26T03:52:31.531Z,-4.23
2018-12-26T03:55:00.024Z,-4.23
2018-12-26T03:57:28.593Z,-4.39
2018-12-26T03:59:56.987Z,-4.39
2018-12-26T04:02:26.879Z,-4.36
2018-12-26T04:04:56.024Z,-4.36
2018-12-26T04:07:25.231Z,-4.59
2018-12-26T04:09:54.793Z,-4.57
2018-12-26T04:12:23.184Z,-4.79
2018-12-26T04:14:52.927Z,-4.79
2018-12-26T04:17:21.921Z,-4.74
2018-12-26T04:19:50.782Z,-4.64
2018-12-26T04:22:19.977Z,-4.49
2018-12-26T04:24:49.215Z,-4.54
2018-12-26T04:27:17.631Z,-4.54
2018-12-26T04:29:45.999Z,-4.64
2018-12-26T04:32:14.416Z,-4.56
2018-12-26T04:34:43.283Z,-4.72
2018-12-26T04:37:12.046Z,-4.44
2018-12-26T04:39:40.421Z,-4.23
2018-12-26T04:42:08.810Z,-4.73
2018-12-26T04:44:37.180Z,-4.73
2018-12-26T04:47:05.575Z,-4.68
2018-12-26T04:49:33.973Z,-4.67
2018-12-26T04:52:02.381Z,-4.60
2018-12-26T04:54:30.754Z,-4.60
2018-12-26T04:56:59.145Z,-4.54
2018-12-26T04:59:27.503Z,-4.54
2018-12-26T05:01:55.895Z,-4.35
2018-12-26T05:04:24.268Z,-4.44
2018-12-26T05:06:52.679Z,-4.52
2018-12-26T05:09:21.117Z,-4.24
2018-12-26T05:11:49.584Z,-4.13
2018-12-26T05:14:18.012Z,-4.30
2018-12-26T05:16:46.412Z,-4.26
2018-12-26T05:19:15.077Z,-4.17
2018-12-26T05:21:43.518Z,-4.35
2018-12-26T05:24:11.981Z,-4.35
2018-12-26T05:26:40.416Z,-4.43
2018-12-26T05:29:08.823Z,-4.17
2018-12-26T05:31:37.269Z,-4.34
2018-12-26T05:34:05.672Z,-4.34
2018-12-26T05:36:34.272Z,-4.20
2018-12-26T05:39:02.741Z,-4.01
2018-12-26T05:41:31.100Z,-4.00
2018-12-26T05:43:59.503Z,-4.00
2018-12-26T05:46:27.869Z,-4.06
2018-12-26T05:48:56.336Z,-3.98
2018-12-26T05:51:24.711Z,-4.12
2018-12-26T05:53:53.168Z,-4.12
2018-12-26T05:56:21.546Z,-3.96
2018-12-26T05:58:49.966Z,-3.91
2018-12-26T06:01:18.400Z,-3.91
2018-12-26T06:03:46.875Z,-3.73
2018-12-26T06:06:15.223Z,-3.68
2018-12-26T06:08:43.648Z,-3.91
2018-12-26T06:11:12.036Z,-3.78
2018-12-26T06:13:40.395Z,-3.78
2018-12-26T06:16:08.796Z,-3.59
2018-12-26T06:18:37.195Z,-3.73
2018-12-26T06:21:05.573Z,-3.58
2018-12-26T06:23:33.951Z,-3.83
2018-12-26T06:26:02.518Z,-3.83
2018-12-26T06:28:30.852Z,-3.53
2018-12-26T06:30:59.419Z,-3.65
2018-12-26T06:33:27.847Z,-3.65
2018-12-26T06:35:56.246Z,-3.56
2018-12-26T06:38:24.607Z,-3.56
2018-12-26T06:40:53.084Z,-3.52
2018-12-26T06:43:21.443Z,-3.43
2018-12-26T06:45:49.849Z,-3.32
2018-12-26T06:48:18.211Z,-3.39
2018-12-26T06:50:46.602Z,-3.45
2018-12-26T06:53:14.982Z,-3.45
2018-12-26T06:55:43.477Z,-3.71
2018-12-26T06:58:11.894Z,-3.46
2018-12-26T07:00:40.289Z,-3.38
2018-12-26T07:03:08.657Z,-3.48
2018-12-26T07:05:37.063Z,-3.47
2018-12-26T07:08:05.434Z,-3.67
2018-12-26T07:10:33.903Z,-3.64
2018-12-26T07:13:02.275Z,-3.62
2018-12-26T07:15:30.674Z,-3.62
2018-12-26T07:17:59.042Z,-3.65
2018-12-26T07:20:27.586Z,-3.64
2018-12-26T07:22:55.962Z,-3.54
2018-12-26T07:25:24.415Z,-3.51
2018-12-26T07:27:52.811Z,-3.60
2018-12-26T07:30:21.251Z,-3.33
2018-12-26T07:32:49.647Z,-3.33
2018-12-26T07:35:18.024Z,-3.45
2018-12-26T07:37:46.573Z,-3.41
2018-12-26T07:40:16.194Z,-3.30
2018-12-26T07:42:44.816Z,-3.49
2018-12-26T07:45:13.166Z,-3.52
2018-12-26T07:47:41.634Z,-3.79
2018-12-26T07:50:10.000Z,-3.34
2018-12-26T07:52:38.402Z,-3.34
2018-12-26T07:55:06.841Z,-3.20
2018-12-26T07:57:35.247Z,-3.37
2018-12-26T08:00:04.246Z,-3.37
2018-12-26T08:02:32.646Z,-3.35
2018-12-26T08:05:01.012Z,-3.18
2018-12-26T08:07:29.408Z,-3.26
2018-12-26T08:09:57.783Z,-3.37
2018-12-26T08:12:26.184Z,-3.21
2018-12-26T08:14:54.624Z,-3.37
2018-12-26T08:17:23.031Z,-3.11
2018-12-26T08:19:51.484Z,-3.13
2018-12-26T08:22:19.868Z,-2.91
2018-12-26T08:24:48.235Z,-2.99
2018-12-26T08:27:16.628Z,-3.02
2018-12-26T08:29:44.998Z,-3.14
2018-12-26T08:32:13.402Z,-3.17
2018-12-26T08:34:41.778Z,-3.07
2018-12-26T08:37:10.148Z,-3.20
2018-12-26T08:39:38.658Z,-3.42
2018-12-26T08:42:06.981Z,-3.23
2018-12-26T08:44:35.452Z,-3.07
2018-12-26T08:47:03.830Z,-3.02
2018-12-26T08:49:32.213Z,-3.02
2018-12-26T08:52:00.650Z,-3.11
2018-12-26T08:54:29.121Z,-3.06
2018-12-26T08:56:57.489Z,-2.98
2018-12-26T08:59:25.894Z,-2.90
2018-12-26T09:01:54.254Z,-2.89
2018-12-26T09:04:22.733Z,-3.20
2018-12-26T09:06:51.098Z,-3.01
2018-12-26T09:09:19.911Z,-2.75
2018-12-26T09:11:48.275Z,-3.10
2018-12-26T09:14:16.690Z,-2.85
2018-12-26T09:16:45.051Z,-2.71
2018-12-26T09:19:13.452Z,-2.83
2018-12-26T09:21:41.888Z,-2.90
2018-12-26T09:24:10.436Z,-3.02
2018-12-26T09:26:39.079Z,-2.99
2018-12-26T09:29:08.076Z,-3.17
2018-12-26T09:31:36.583Z,-3.05
2018-12-26T09:34:05.279Z,-2.76
2018-12-26T09:36:33.638Z,-3.14
2018-12-26T09:39:02.005Z,-3.12
2018-12-26T09:41:30.505Z,-3.25
2018-12-26T09:43:58.881Z,-3.04
2018-12-26T09:46:27.537Z,-3.18
2018-12-26T09:48:55.904Z,-3.12
2018-12-26T09:51:24.426Z,-3.16
2018-12-26T09:53:52.781Z,-3.17
2018-12-26T09:56:21.275Z,-3.17
2018-12-26T09:58:52.671Z,-3.11
2018-12-26T10:01:19.880Z,-3.12
2018-12-26T10:03:49.989Z,-3.00
2018-12-26T10:06:18.416Z,-2.92
2018-12-26T10:08:46.917Z,-3.01
2018-12-26T10:11:15.394Z,-2.92
2018-12-26T10:13:43.775Z,-2.92
2018-12-26T10:16:12.168Z,-2.78
2018-12-26T10:18:40.531Z,-2.74
2018-12-26T10:21:09.673Z,-2.72
2018-12-26T10:23:39.471Z,-2.75
2018-12-26T10:26:07.931Z,-2.61
2018-12-26T10:28:37.848Z,-2.41
2018-12-26T10:31:06.323Z,-2.38
2018-12-26T10:33:34.789Z,-2.32
2018-12-26T10:36:03.169Z,-2.28
2018-12-26T10:38:31.527Z,-2.37
2018-12-26T10:41:01.602Z,-2.18
2018-12-26T10:43:30.700Z,-2.14
2018-12-26T10:45:59.510Z,-2.48
2018-12-26T10:48:27.875Z,-2.56
2018-12-26T10:50:56.380Z,-2.63
2018-12-26T10:53:24.838Z,-2.49
2018-12-26T10:55:53.282Z,-2.51
2018-12-26T10:58:21.855Z,-2.40
2018-12-26T11:00:50.225Z,-2.43
2018-12-26T11:03:18.631Z,-2.25
2018-12-26T11:05:46.996Z,-2.20
2018-12-26T11:08:15.568Z,-2.33
2018-12-26T11:10:44.014Z,-2.32
2018-12-26T11:13:12.415Z,-2.35
2018-12-26T11:15:40.795Z,-2.48
2018-12-26T11:18:09.313Z,-2.48
2018-12-26T11:20:37.781Z,-2.43
2018-12-26T11:23:06.321Z,-2.44
2018-12-26T11:25:35.169Z,-2.36
2018-12-26T11:28:03.564Z,-2.33
2018-12-26T11:30:32.073Z,-2.37
2018-12-26T11:33:01.481Z,-2.42
2018-12-26T11:35:29.967Z,-2.31
2018-12-26T11:37:58.446Z,-2.35
2018-12-26T11:40:26.876Z,-2.43
2018-12-26T11:42:55.445Z,-2.19
2018-12-26T11:45:23.967Z,-2.00
2018-12-26T11:47:52.414Z,-2.11
2018-12-26T11:50:21.088Z,-2.06
2018-12-26T11:52:49.638Z,-2.21
2018-12-26T11:55:18.074Z,-2.07
2018-12-26T11:57:46.476Z,-2.03
2018-12-26T12:00:14.836Z,-1.98
2018-12-26T12:02:43.310Z,-1.79
2018-12-26T12:05:11.678Z,-1.87
2018-12-26T12:07:40.106Z,-2.19
2018-12-26T12:10:08.820Z,-2.10
2018-12-26T12:12:39.236Z,-2.00
2018-12-26T12:15:07.701Z,-1.72
2018-12-26T12:17:36.135Z,-1.61
2018-12-26T12:20:07.214Z,-1.67
2018-12-26T12:22:35.605Z,-1.78
2018-12-26T12:25:04.423Z,-1.89
2018-12-26T12:27:32.785Z,-1.96
2018-12-26T12:30:01.279Z,-2.05
2018-12-26T12:32:29.742Z,-1.97
2018-12-26T12:34:58.237Z,-1.94
2018-12-26T12:37:26.746Z,-1.92
2018-12-26T12:39:55.581Z,-1.87
2018-12-26T12:42:24.173Z,-1.62
2018-12-26T12:44:52.650Z,-1.77
2018-12-26T12:47:21.286Z,-1.93
2018-12-26T12:49:49.745Z,-1.73
2018-12-26T12:52:18.255Z,-1.59
2018-12-26T12:54:46.720Z,-1.71
2018-12-26T12:57:15.157Z,-1.62
2018-12-26T12:59:44.913Z,-1.74
2018-12-26T13:02:13.590Z,-1.62
2018-12-26T13:04:42.168Z,-1.41
2018-12-26T13:07:10.535Z,-1.47
2018-12-26T13:09:38.940Z,-1.53
2018-12-26T13:12:07.407Z,-1.51
2018-12-26T13:14:36.045Z,-1.44
2018-12-26T13:17:05.349Z,-1.39
2018-12-26T13:19:34.159Z,-1.38
2018-12-26T13:22:03.198Z,-1.47
2018-12-26T13:24:31.979Z,-1.65
2018-12-26T13:27:01.078Z,-1.78
2018-12-26T13:29:29.735Z,-1.72
2018-12-26T13:32:00.080Z,-1.81
2018-12-26T13:34:30.551Z,-1.57
2018-12-26T13:36:59.408Z,-1.44
2018-12-26T13:39:30.326Z,-1.47
2018-12-26T13:42:00.083Z,-1.33
2018-12-26T13:44:29.246Z,-1.27
2018-12-26T13:46:58.609Z,-1.40
2018-12-26T13:49:27.618Z,-1.50
2018-12-26T13:51:58.032Z,-1.26
2018-12-26T13:54:27.103Z,-1.40
2018-12-26T13:56:57.323Z,-1.63
2018-12-26T13:59:26.165Z,-1.42
2018-12-26T14:01:55.957Z,-1.27
2018-12-26T14:04:27.158Z,-1.27
2018-12-26T14:06:55.989Z,-1.45
2018-12-26T14:09:24.944Z,-1.45
2018-12-26T14:11:53.459Z,-1.39
2018-12-26T14:14:24.510Z,-1.53
2018-12-26T14:16:53.198Z,-1.45
2018-12-26T14:19:21.547Z,-1.53
2018-12-26T14:21:50.021Z,-1.51
2018-12-26T14:24:18.402Z,-1.46
2018-12-26T14:26:46.841Z,-1.36
2018-12-26T14:29:15.282Z,-1.33
2018-12-26T14:31:43.678Z,-1.28
2018-12-26T14:34:12.058Z,-1.16
2018-12-26T14:36:40.437Z,-1.16
2018-12-26T14:39:08.898Z,-1.36
2018-12-26T14:41:37.387Z,-1.42
2018-12-26T14:44:05.887Z,-1.36
2018-12-26T14:46:34.538Z,-1.44
2018-12-26T14:49:03.016Z,-1.32
2018-12-26T14:51:31.381Z,-1.28
2018-12-26T14:53:59.788Z,-1.41
2018-12-26T14:56:28.304Z,-1.25
2018-12-26T14:58:58.042Z,-1.23
2018-12-26T15:01:26.564Z,-1.38
2018-12-26T15:03:55.125Z,-1.26
2018-12-26T15:06:23.561Z,-1.35
2018-12-26T15:08:51.965Z,-1.50
2018-12-26T15:11:20.417Z,-1.34
2018-12-26T15:13:48.847Z,-1.28
2018-12-26T15:16:17.206Z,-1.26
2018-12-26T15:18:45.712Z,-1.61
2018-12-26T15:21:14.202Z,-1.61
2018-12-26T15:23:42.598Z,-1.43
2018-12-26T15:26:10.988Z,-1.43
2018-12-26T15:28:39.780Z,-1.52
2018-12-26T15:31:08.150Z,-1.50
2018-12-26T15:33:36.580Z,-1.36
2018-12-26T15:36:05.091Z,-1.49
2018-12-26T15:38:33.490Z,-1.37
2018-12-26T15:41:01.904Z,-1.46
2018-12-26T15:43:30.343Z,-1.46
2018-12-26T15:45:58.758Z,-1.46
2018-12-26T15:48:27.554Z,-1.47
2018-12-26T15:50:56.551Z,-1.34
2018-12-26T15:53:25.052Z,-1.26
2018-12-26T15:55:53.614Z,-1.44
2018-12-26T15:58:22.016Z,-1.46
2018-12-26T16:00:50.630Z,-1.51
2018-12-26T16:03:19.005Z,-1.57
2018-12-26T16:05:47.408Z,-1.40
2018-12-26T16:08:15.777Z,-1.56
2018-12-26T16:10:44.288Z,-1.49
2018-12-26T16:13:13.336Z,-1.67
2018-12-26T16:15:41.853Z,-1.78
2018-12-26T16:18:10.287Z,-1.79
2018-12-26T16:20:38.806Z,-1.65
2018-12-26T16:23:07.208Z,-1.61
2018-12-26T16:25:35.624Z,-1.54
2018-12-26T16:28:03.993Z,-1.60
2018-12-26T16:30:32.392Z,-1.64
2018-12-26T16:33:00.846Z,-1.66
2018-12-26T16:35:29.354Z,-1.71
2018-12-26T16:38:01.604Z,-1.63
2018-12-26T16:40:27.846Z,-1.62
2018-12-26T16:42:56.322Z,-1.60
2018-12-26T16:45:24.776Z,-1.50
2018-12-26T16:47:53.623Z,-1.49
2018-12-26T16:50:27.011Z,-1.52
2018-12-26T16:52:52.526Z,-1.76
2018-12-26T16:55:20.967Z,-1.57
2018-12-26T16:57:49.445Z,-1.46
2018-12-26T17:00:17.897Z,-1.49
2018-12-26T17:02:46.375Z,-1.57
2018-12-26T17:05:14.997Z,-1.77
2018-12-26T17:07:43.414Z,-1.79
2018-12-26T17:10:15.207Z,-1.82
2018-12-26T17:12:43.600Z,-1.91
2018-12-26T17:15:11.977Z,-1.93
2018-12-26T17:17:40.374Z,-1.74
2018-12-26T17:20:09.207Z,-1.77
2018-12-26T17:22:37.600Z,-1.75
2018-12-26T17:25:06.152Z,-1.71
2018-12-26T17:27:34.641Z,-1.70
2018-12-26T17:30:05.391Z,-1.60
2018-12-26T17:32:37.587Z,-1.59
2018-12-26T17:35:27.663Z,-1.72
2018-12-26T17:37:56.796Z,-1.73
2018-12-26T17:40:26.491Z,-1.56
2018-12-26T17:42:56.125Z,-1.50
2018-12-26T17:45:25.415Z,-1.56
2018-12-26T17:47:56.769Z,-1.54
2018-12-26T17:50:49.338Z,-1.60
2018-12-26T17:53:30.588Z,-1.54
2018-12-26T17:56:08.025Z,-1.54
2018-12-26T17:58:48.978Z,-1.51
2018-12-26T18:01:26.696Z,-1.37
2018-12-26T18:03:55.702Z,-1.54
2018-12-26T18:06:24.670Z,-1.44
2018-12-26T18:08:53.824Z,-1.32
2018-12-26T18:11:22.258Z,-1.29
2018-12-26T18:13:51.233Z,-1.41
2018-12-26T18:16:20.301Z,-1.44
2018-12-26T18:18:48.854Z,-1.37
2018-12-26T18:21:17.290Z,-1.38
2018-12-26T18:23:45.707Z,-1.44
2018-12-26T18:26:14.127Z,-1.47
2018-12-26T18:28:44.307Z,-1.42
2018-12-26T18:31:21.860Z,-1.33
2018-12-26T18:33:44.441Z,-1.35
2018-12-26T18:36:13.265Z,-1.45
2018-12-26T18:38:42.326Z,-1.42
2018-12-26T18:41:11.008Z,-1.42
2018-12-26T18:43:41.227Z,-1.48
2018-12-26T18:46:09.934Z,-1.66
2018-12-26T18:48:39.330Z,-1.49
2018-12-26T18:51:08.723Z,-1.49
2018-12-26T18:53:37.423Z,-1.54
2018-12-26T18:56:08.074Z,-1.59
2018-12-26T18:58:37.829Z,-1.59
2018-12-26T19:01:06.711Z,-1.69
2018-12-26T19:03:36.926Z,-1.45
2018-12-26T19:06:05.403Z,-1.40
2018-12-26T19:08:34.349Z,-1.43
2018-12-26T19:11:02.749Z,-1.43
2018-12-26T19:13:31.497Z,-1.41
2018-12-26T19:15:59.973Z,-1.45
2018-12-26T19:18:28.471Z,-1.41
2018-12-26T19:20:56.874Z,-1.51
2018-12-26T19:23:25.250Z,-1.51
2018-12-26T19:25:53.751Z,-1.45
2018-12-26T19:28:22.114Z,-1.34
2018-12-26T19:30:51.299Z,-1.33
2018-12-26T19:33:19.662Z,-1.59
2018-12-26T19:35:48.078Z,-1.48
2018-12-26T19:38:16.703Z,-1.55
2018-12-26T19:40:45.168Z,-1.57
2018-12-26T19:43:13.742Z,-1.73
2018-12-26T19:45:42.262Z,-1.75
2018-12-26T19:48:10.632Z,-1.77
2018-12-26T19:50:39.029Z,-1.70
2018-12-26T19:53:07.411Z,-1.66
2018-12-26T19:55:35.854Z,-1.66
2018-12-26T19:58:04.401Z,-1.74
2018-12-26T20:00:32.790Z,-1.63
2018-12-26T20:03:02.612Z,-1.63
2018-12-26T20:05:32.424Z,-1.57
2018-12-26T20:08:00.856Z,-1.57
2018-12-26T20:10:29.235Z,-1.43
2018-12-26T20:12:57.694Z,-1.63
2018-12-26T20:15:26.218Z,-1.45
2018-12-26T20:17:55.781Z,-1.45
2018-12-26T20:20:24.599Z,-1.51
2018-12-26T20:22:53.510Z,-1.49
2018-12-26T20:25:21.971Z,-1.45
2018-12-26T20:27:50.384Z,-1.49
2018-12-26T20:30:18.742Z,-1.66
2018-12-26T20:32:47.223Z,-1.79
2018-12-26T20:35:15.823Z,-1.78
2018-12-26T20:37:44.784Z,-1.67
2018-12-26T20:40:13.716Z,-1.60
2018-12-26T20:42:42.197Z,-1.49
2018-12-26T20:45:13.252Z,-1.56
2018-12-26T20:47:41.665Z,-1.65
2018-12-26T20:50:10.111Z,-1.76
2018-12-26T20:52:38.595Z,-1.87
2018-12-26T20:55:07.031Z,-1.69
2018-12-26T20:57:35.439Z,-1.70
2018-12-26T21:00:06.101Z,-1.77
2018-12-26T21:02:34.513Z,-1.70
2018-12-26T21:05:03.017Z,-1.70
2018-12-26T21:07:31.385Z,-1.87
2018-12-26T21:09:59.788Z,-1.78
2018-12-26T21:12:28.218Z,-1.74
2018-12-26T21:14:56.747Z,-1.77
2018-12-26T21:17:25.183Z,-1.71
2018-12-26T21:19:55.027Z,-1.91
2018-12-26T21:22:23.477Z,-1.77
2018-12-26T21:24:52.987Z,-1.98
2018-12-26T21:27:21.438Z,-1.86
2018-12-26T21:29:50.483Z,-1.91
2018-12-26T21:32:18.984Z,-1.92
2018-12-26T21:34:47.524Z,-1.85
2018-12-26T21:37:15.980Z,-1.88
2018-12-26T21:39:44.376Z,-2.01
2018-12-26T21:42:12.742Z,-2.09
2018-12-26T21:44:41.138Z,-2.23
2018-12-26T21:47:09.565Z,-1.81
2018-12-26T21:49:39.029Z,-1.85
2018-12-26T21:52:08.197Z,-1.96
2018-12-26T21:54:37.690Z,-2.06
2018-12-26T21:57:08.304Z,-1.92
2018-12-26T21:59:37.469Z,-1.80
2018-12-26T22:02:06.184Z,-2.12
2018-12-26T22:04:34.577Z,-2.10
2018-12-26T22:07:02.955Z,-2.08
2018-12-26T22:09:32.065Z,-2.03
2018-12-26T22:12:01.003Z,-1.97
2018-12-26T22:14:29.674Z,-2.06
2018-12-26T22:16:59.232Z,-1.98
2018-12-26T22:19:27.688Z,-2.00
2018-12-26T22:21:56.425Z,-2.09
2018-12-26T22:24:25.399Z,-1.94
2018-12-26T22:26:53.839Z,-2.13
2018-12-26T22:29:25.149Z,-2.13
2018-12-26T22:31:53.951Z,-2.22
2018-12-26T22:34:24.481Z,-2.19
2018-12-26T22:36:53.293Z,-2.23
2018-12-26T22:39:22.069Z,-2.28
2018-12-26T22:41:50.809Z,-2.25
2018-12-26T22:44:27.552Z,-2.22
2018-12-26T22:46:52.494Z,-2.21
2018-12-26T22:49:21.833Z,-2.07
2018-12-26T22:51:50.414Z,-2.14
2018-12-26T22:54:18.785Z,-2.19
2018-12-26T22:56:47.584Z,-2.19
2018-12-26T22:59:16.738Z,-2.19
2018-12-26T23:01:45.887Z,-2.20
2018-12-26T23:04:15.227Z,-2.17
2018-12-26T23:06:44.271Z,-2.31
2018-12-26T23:09:12.748Z,-2.46
2018-12-26T23:11:41.608Z,-2.46
2018-12-26T23:14:11.861Z,-2.41
2018-12-26T23:16:43.311Z,-2.24
2018-12-26T23:19:12.431Z,-2.35
2018-12-26T23:21:42.978Z,-2.32
2018-12-26T23:24:12.172Z,-2.45
2018-12-26T23:26:41.020Z,-2.41
2018-12-26T23:29:10.086Z,-2.50
2018-12-26T23:31:38.604Z,-2.39
2018-12-26T23:34:08.018Z,-2.53
2018-12-26T23:36:39.837Z,-2.54
2018-12-26T23:39:08.538Z,-2.53
2018-12-26T23:41:37.159Z,-2.46
2018-12-26T23:44:05.765Z,-2.40
2018-12-26T23:46:38.622Z,-2.48
2018-12-26T23:49:07.447Z,-2.33
2018-12-26T23:51:36.462Z,-2.51
2018-12-26T23:54:05.376Z,-2.53
2018-12-26T23:56:34.118Z,-2.58
2018-12-26T23:59:02.714Z,-2.64
